Tiempo atmosférico en la estación meteorológica de Ordizia, Gipuzkoa (290 m.)



Fecha
DESCASC
Temp. máxima en grados centígrados (hora)
DESCASC
Temp. mínima en grados centígrados (hora)
DESCASC
Temp. media en grados centígrados
DESCASC
Racha de viento máxima en m/sg (hora)
DESCASC
Velocidad máxima media en intervalos de 10 minutos(hora)
DESCASC
Precipitaciones diarias en mm
DESCASC
Precipitaciones de 00:00 a 06:00 en mm
DESCASC
Precipitaciones de 06:00 a 12:00 en mm
DESCASC
Precipitaciones de 12:00 a 18:00 en mm
DESCASC
Precipitaciones de 18:00 a 24:00 en mm
DESCASC
30-11-2020 15 (14:00) 3.4 (09:00) 9.2 6.39 (15:30) 3.33 (16:00) 0 0 0 0 0
29-11-2020 17.8 (14:40) 5.7 (00:00) 11.7 4.72 (15:20) 3.06 (15:20) 0 0 0 0 0
28-11-2020 17.1 (15:10) 4.8 (00:00) 11 6.39 (17:20) 3.61 (18:10) 0 0 0 0 0
27-11-2020 17.1 (12:20) 9.5 (00:00) 13.3 16.39 (01:10) 8.33 (04:40) 0 0 0 0 0
26-11-2020 17.2 (12:30) 12.8 (00:00) 15 20.83 (01:00) 10.83 (00:40) 0 0 0 0 0
25-11-2020 14.8 (14:50) 10.1 (00:00) 12.5 17.5 (23:20) 9.17 (23:50) 0 0 0 0 0
24-11-2020 15.6 (11:50) 2.8 (00:00) 9.2 10 (09:50) 4.44 (20:20) 0 0 0 0 0
23-11-2020 13.9 (15:10) 1.4 (00:00) 7.6 3.89 (14:40) 2.5 (14:40) 0 0 0 0 0
22-11-2020 15.5 (15:30) 0.7 (00:00) 8.1 2.78 (17:20) 1.67 (16:00) 0 0 0 0 0
21-11-2020 12.5 (14:50) 2.1 (00:00) 7.3 5.28 (16:50) 2.78 (15:30) 0 0 0 0 0
20-11-2020 11.7 (14:00) 4.5 (00:00) 8.1 6.67 (14:20) 3.89 (11:30) 0.8 0.2 0.6 0 0
19-11-2020 13.3 (13:30) 9 (00:00) 11.2 6.39 (10:00) 1.94 (14:00) 0.6 0 0.4 0 0.2
18-11-2020 22.9 (15:00) 11.2 (00:00) 17 11.67 (03:30) 5.56 (00:40) 0 0 0 0 0
17-11-2020 18.1 (16:30) 5.6 (00:00) 11.9 11.11 (23:59) 4.44 (23:59) 0.2 0 0 0.2 0
16-11-2020 13.4 (13:30) 7.3 (00:00) 10.3 4.17 (12:30) 2.5 (12:30) 3.2 2.2 0.8 0 0.2
15-11-2020 20.6 (15:00) 11.4 (00:00) 16 14.72 (14:10) 6.39 (13:30) 7.6 0 0 0 7.6
14-11-2020 17.1 (15:20) 11.8 (00:00) 14.5 12.22 (13:30) 6.11 (04:20) 0 0 0 0 0
13-11-2020 19 (14:30) 10.9 (00:00) 14.9 9.72 (05:30) 5.28 (05:30) 0 0 0 0 0
12-11-2020 21 (14:50) 7 (00:00) 14 6.39 (15:30) 3.61 (21:10) 0 0 0 0 0
11-11-2020 18 (13:40) 8.1 (00:00) 13.1 8.89 (10:40) 4.72 (10:30) 0 0 0 0 0
10-11-2020 16.4 (12:50) 8.4 (00:00) 12.4 4.44 (12:50) 3.06 (13:00) 2 0 0.8 1.2 0
09-11-2020 20.4 (14:30) 9.9 (00:00) 15.1 9.17 (07:10) 5.28 (15:10) 0 0 0 0 0
08-11-2020 18.8 (15:10) 13.3 (00:00) 16 12.5 (21:40) 8.06 (13:40) 0 0 0 0 0
07-11-2020 19.1 (00:00) 14.4 (00:00) 16.8 15.83 (04:00) 8.61 (06:00) 6.6 0 6.4 0.2 0
06-11-2020 20.1 (14:10) 15.6 (00:00) 17.9 25.56 (20:20) 13.61 (05:50) 0 0 0 0 0
05-11-2020 18.4 (15:00) 5.8 (00:00) 12.1 9.72 (15:10) 5.83 (18:40) 0 0 0 0 0
04-11-2020 10.6 (13:50) 6.2 (00:00) 8.4 5.56 (15:10) 2.5 (13:30) 0.4 0.2 0.2 0 0
03-11-2020 12.2 (12:20) 8 (00:00) 10.1 10 (15:50) 3.89 (15:30) 6.4 3.2 0.6 1.2 1.4
02-11-2020 23.3 (13:50) 12 (00:00) 17.6 9.17 (16:30) 4.72 (16:20) 1.2 0 0 0 1.2

Gráficas

Temp. máximas Temp. mínimas Temp. medias Precipitaciones Rachas de viento máximas Velocidades máximas media en intervalos de 10 minutos

Datos horarios

Fecha y hora oficial Temperatura (ºC) Velocidad del viento (km/h) Dirección del viento Racha (km/h) Dirección de racha Precipitación (mm) Presión (hPa) Tendencia (hPa) Humedad (%)
2020-12-01 23:00:00 7.7 9 Nordeste 18 Este 1 -- -- 98
2020-12-01 22:00:00 8.6 6 Este 17 Este 0.8 -- -- 98
2020-12-01 21:00:00 9 3 Norte 28 Oeste 1.4 -- -- 96
2020-12-01 20:00:00 9.8 4 Este 9 Oeste 0.2 -- -- 86
2020-12-01 19:00:00 10.1 4 Oeste 9 Oeste 0 -- -- 80
2020-12-01 18:00:00 10.9 5 Noroeste 17 Norte 0 -- -- 72
2020-12-01 17:00:00 11.4 5 Noroeste 11 Sudoeste 0 -- -- 69
2020-12-01 16:00:00 11.6 3 Sur 9 Sudeste 0 -- -- 75
2020-12-01 15:00:00 11.1 4 Sudeste 8 Sudeste 0 -- -- 79
2020-12-01 14:00:00 9.8 4 Sudeste 7 Sudeste 0 -- -- 87
2020-12-01 13:00:00 8.4 3 Sudeste 5 Sudeste 0 -- -- 95
2020-12-01 12:00:00 7.1 2 Sur 5 Sudeste 0 -- -- 100
2020-12-01 11:00:00 5.6 0 Calma 4 Oeste 0 -- -- 100
2020-12-01 10:00:00 4.6 0 Calma 4 Noroeste 0 -- -- 100
2020-12-01 09:00:00 4.2 0 Calma 6 Noroeste 0 -- -- 100
2020-12-01 08:00:00 4.5 3 Oeste 5 Oeste 0 -- -- 100
2020-12-01 07:00:00 5 0 Calma 3 Sudoeste 0 -- -- 100
2020-12-01 06:00:00 5.3 0 Calma 5 Noroeste 0 -- -- 100
2020-12-01 05:00:00 5.6 3 Noroeste 5 Oeste 0 -- -- 99
2020-12-01 04:00:00 6.1 3 Este 5 Oeste 0 -- -- 99
2020-12-01 03:00:00 6.4 2 Sudeste 3 Sudeste 0 -- -- 98
2020-12-01 02:00:00 6.9 2 Oeste 6 Oeste 0 -- -- 97
2020-12-01 01:00:00 7.2 2 Oeste 5 Sudeste 0 -- -- 95
2020-12-01 00:00:00 7.9 4 Noroeste 6 Noroeste 0 -- -- 95
2020-11-30 23:00:00 8.3 2 Noroeste 5 Noroeste 0 -- -- 94
2020-11-30 22:00:00 8.9 4 Oeste 6 Oeste 0 -- -- 90
2020-11-30 21:00:00 10.2 4 Este 5 Este 0 -- -- 90
2020-11-30 20:00:00 11 2 Nordeste 8 Este 0 -- -- 88
2020-11-30 19:00:00 11.4 3 Este 13 Este 0 -- -- 88
2020-11-30 18:00:00 11.8 4 Nordeste 12 Este 0 -- -- 87
2020-11-30 17:00:00 12.2 8 Este 17 Nordeste 0 -- -- 85
2020-11-30 16:00:00 13.8 12 Este 23 Este 0 -- -- 81
2020-11-30 15:00:00 14.8 10 Sudeste 15 Sudeste 0 -- -- 75
2020-11-30 14:00:00 15 6 Sudeste 12 Este 0 -- -- 73
2020-11-30 13:00:00 13.7 7 Sudeste 11 Sudeste 0 -- -- 78
2020-11-30 12:00:00 11.3 4 Sudeste 8 Sudeste 0 -- -- 85
2020-11-30 11:00:00 8 4 Sudeste 6 Sudeste 0 -- -- 99
2020-11-30 10:00:00 5 2 Sudoeste 5 Sudeste 0 -- -- 100
2020-11-30 09:00:00 3.4 3 Oeste 5 Oeste 0 -- -- 100
2020-11-30 08:00:00 4.4 5 Noroeste 6 Este 0 -- -- 100
2020-11-30 07:00:00 4.1 2 Oeste 7 Oeste 0 -- -- 100
2020-11-30 06:00:00 4.8 2 Noroeste 5 Noroeste 0 -- -- 100
2020-11-30 05:00:00 5.2 0 Calma 4 Noroeste 0 -- -- 99
2020-11-30 04:00:00 5.3 3 Noroeste 5 Sudoeste 0 -- -- 99
2020-11-30 03:00:00 5.7 5 Oeste 6 Oeste 0 -- -- 98
2020-11-30 02:00:00 6.3 0 Calma 4 Noroeste 0 -- -- 97
2020-11-30 01:00:00 6.6 0 Calma 4 Sudoeste 0 -- -- 97
2020-11-30 00:00:00 7 2 Sudoeste 4 Sudoeste 0 -- -- 95
2020-11-29 23:00:00 8 3 Oeste 4 Oeste 0 -- -- 94
2020-11-29 22:00:00 8.7 3 Noroeste 6 Noroeste 0 -- -- 91
2020-11-29 21:00:00 9.7 5 Oeste 6 Oeste 0 -- -- 87
2020-11-29 20:00:00 10.8 3 Oeste 5 Oeste 0 -- -- 83
2020-11-29 19:00:00 11.7 3 Oeste 11 Oeste 0 -- -- 81
2020-11-29 18:00:00 13.4 7 Oeste 12 Noroeste 0 -- -- 71
2020-11-29 17:00:00 15.8 3 Nordeste 10 Este 0 -- -- 64
2020-11-29 16:00:00 16.6 4 Sur 17 Sudeste 0 -- -- 60
2020-11-29 15:00:00 17.4 9 Sudeste 15 Sudeste 0 -- -- 58
2020-11-29 14:00:00 17 4 Este 11 Este 0 -- -- 62
2020-11-29 13:00:00 16.8 4 Sudeste 9 Este 0 -- -- 67
2020-11-29 12:00:00 14.3 5 Noroeste 8 Noroeste 0 -- -- 70
2020-11-29 11:00:00 11.1 4 Noroeste 8 Este 0 -- -- 84
2020-11-29 10:00:00 9.2 3 Oeste 8 Oeste 0 -- -- 88
2020-11-29 09:00:00 7.6 0 Calma 8 Oeste 0 -- -- 94
2020-11-29 08:00:00 8.5 5 Oeste 9 Oeste 0 -- -- 91
2020-11-29 07:00:00 6.7 4 Noroeste 9 Este 0 -- -- 98
2020-11-29 06:00:00 6.4 3 Oeste 10 Sudeste 0 -- -- 98
2020-11-29 05:00:00 6.5 4 Noroeste 8 Sudeste 0 -- -- 95
2020-11-29 04:00:00 6.8 2 Oeste 8 Noroeste 0 -- -- 94
2020-11-29 03:00:00 7.3 6 Oeste 9 Noroeste 0 -- -- 94
2020-11-29 02:00:00 7.5 2 Este 5 Este 0 -- -- 92
2020-11-29 01:00:00 8.2 3 Sur 6 Noroeste 0 -- -- 89
2020-11-29 00:00:00 8.7 3 Sudeste 7 Sudeste 0 -- -- 87
2020-11-28 23:00:00 9.7 4 Noroeste 8 Noroeste 0 -- -- 83
2020-11-28 22:00:00 11.3 3 Este 8 Sur 0 -- -- 75
2020-11-28 21:00:00 12.8 5 Sudoeste 11 Sudoeste 0 -- -- 69
2020-11-28 20:00:00 13.2 6 Oeste 12 Noroeste 0 -- -- 67
2020-11-28 19:00:00 13.5 4 Este 22 Sudeste 0 -- -- 65
2020-11-28 18:00:00 14.3 11 Sudeste 23 Sur 0 -- -- 62
2020-11-28 17:00:00 16 6 Sudoeste 15 Este 0 -- -- 59
2020-11-28 16:00:00 16.4 5 Este 9 Este 0 -- -- 60
2020-11-28 15:00:00 17 2 Sudeste 8 Este 0 -- -- 61
2020-11-28 14:00:00 15.3 3 Sudeste 9 Sur 0 -- -- 71
2020-11-28 13:00:00 12.4 6 Sudeste 9 Sudeste 0 -- -- 81
2020-11-28 12:00:00 9.9 2 Sur 4 Este 0 -- -- 93
2020-11-28 11:00:00 8.6 4 Sudeste 6 Sudeste 0 -- -- 100
2020-11-28 10:00:00 5.9 2 Noroeste 4 Noroeste 0 -- -- 100
2020-11-28 09:00:00 4.9 2 Sudeste 5 Oeste 0 -- -- 100
2020-11-28 08:00:00 5.5 3 Oeste 7 Noroeste 0 -- -- 100
2020-11-28 07:00:00 5.9 2 Norte 6 Este 0 -- -- 99
2020-11-28 06:00:00 6.1 2 Sudoeste 4 Sudoeste 0 -- -- 99
2020-11-28 05:00:00 6.8 2 Oeste 4 Noroeste 0 -- -- 98
2020-11-28 04:00:00 7.3 0 Calma 4 Noroeste 0 -- -- 97
2020-11-28 03:00:00 7.5 0 Calma 4 Noroeste 0 -- -- 96
2020-11-28 02:00:00 8.2 3 Este 5 Noroeste 0 -- -- 95
2020-11-28 01:00:00 8.6 2 Sudeste 5 Oeste 0 -- -- 93
2020-11-28 00:00:00 9.6 5 Oeste 7 Noroeste 0 -- -- 88
2020-11-27 23:00:00 10.1 2 Sur 5 Noroeste 0 -- -- 87
2020-11-27 22:00:00 10.6 5 Noroeste 7 Norte 0 -- -- 87
2020-11-27 21:00:00 11.4 6 Noroeste 9 Noroeste 0 -- -- 81
2020-11-27 20:00:00 12.3 4 Noroeste 6 Este 0 -- -- 80
2020-11-27 19:00:00 13.7 3 Oeste 9 Nordeste 0 -- -- 74
2020-11-27 18:00:00 15.1 5 Norte 10 Nordeste 0 -- -- 64
2020-11-27 17:00:00 15.7 4 Noroeste 10 Sudoeste 0 -- -- 63
2020-11-27 16:00:00 16.7 4 Sudoeste 22 Sudeste 0 -- -- 59
2020-11-27 15:00:00 16.4 4 Este 12 Sudoeste 0 -- -- 62
2020-11-27 14:00:00 16.2 8 Sur 21 Sudeste 0 -- -- 59
2020-11-27 13:00:00 16.2 11 Sur 35 Este 0 -- -- 58
2020-11-27 12:00:00 16.4 6 Sur 16 Sur 0 -- -- 66
2020-11-27 11:00:00 15.2 3 Sur 11 Oeste 0 -- -- 70
2020-11-27 10:00:00 14.4 5 Sudoeste 13 Sudoeste 0 -- -- 68
2020-11-27 09:00:00 14.5 7 Sudoeste 19 Sur 0 -- -- 66
2020-11-27 08:00:00 14.5 6 Sudoeste 36 Sudeste 0 -- -- 66
2020-11-27 07:00:00 14.8 25 Sudeste 42 Sudeste 0 -- -- 65
2020-11-27 06:00:00 15.2 17 Sudeste 42 Sudeste 0 -- -- 66
2020-11-27 05:00:00 15.4 25 Sudeste 47 Sudeste 0 -- -- 66
2020-11-27 04:00:00 15.5 12 Sudeste 35 Sudeste 0 -- -- 64
2020-11-27 03:00:00 15.6 6 Sudeste 24 Oeste 0 -- -- 63
2020-11-27 02:00:00 15.5 9 Sudeste 59 Sudeste 0 -- -- 65
2020-11-27 01:00:00 15.5 18 Sudeste 46 Sudeste 0 -- -- 64
2020-11-27 00:00:00 15.5 9 Sur 53 Sudeste 0 -- -- 64
2020-11-26 23:00:00 15.8 27 Sudeste 49 Sudeste 0 -- -- 64
2020-11-26 22:00:00 15.5 16 Sudeste 39 Sudeste 0 -- -- 64
2020-11-26 21:00:00 15.5 12 Este 52 Este 0 -- -- 63
2020-11-26 20:00:00 15.1 21 Sudeste 44 Sudeste 0 -- -- 64
2020-11-26 19:00:00 15.2 19 Este 51 Sudeste 0 -- -- 65
2020-11-26 18:00:00 15.4 27 Sudeste 41 Sudeste 0 -- -- 64
2020-11-26 17:00:00 15.4 9 Sudeste 29 Sudeste 0 -- -- 65
2020-11-26 16:00:00 15.8 21 Sudeste 58 Sudeste 0 -- -- 63
2020-11-26 15:00:00 16 20 Sudeste 47 Este 0 -- -- 61
2020-11-26 14:00:00 15.6 19 Sudeste 44 Sudeste 0 -- -- 63
2020-11-26 13:00:00 15.8 27 Sudeste 57 Sudeste 0 -- -- 61
2020-11-26 12:00:00 15.9 10 Sudeste 54 Sur 0 -- -- 61
2020-11-26 11:00:00 14.8 16 Sur 53 Sudeste 0 -- -- 62
2020-11-26 10:00:00 14.3 13 Sur 44 Sudeste 0 -- -- 65
2020-11-26 09:00:00 14 27 Sudeste 47 Sudeste 0 -- -- 65
2020-11-26 08:00:00 13.6 9 Sur 44 Sudeste 0 -- -- 66
2020-11-26 07:00:00 13.6 15 Sudeste 56 Sudeste 0 -- -- 66
2020-11-26 06:00:00 13.1 13 Sudeste 32 Nordeste 0 -- -- 66
2020-11-26 05:00:00 13 7 Este 42 Sudeste 0 -- -- 66
2020-11-26 04:00:00 13.1 15 Este 50 Este 0 -- -- 66
2020-11-26 03:00:00 13.4 24 Este 61 Sudeste 0 -- -- 66
2020-11-26 02:00:00 13.3 22 Sudeste 62 Este 0 -- -- 66
2020-11-26 01:00:00 13.6 30 Sudeste 75 Este 0 -- -- 65
2020-11-26 00:00:00 13.6 29 Sudeste 63 Sudeste 0 -- -- 63
2020-11-25 23:00:00 13.3 28 Sudeste 58 Este 0 -- -- 63
2020-11-25 22:00:00 13.2 29 Sudeste 55 Sudeste 0 -- -- 65
2020-11-25 21:00:00 12.9 13 Sur 39 Este 0 -- -- 66
2020-11-25 20:00:00 13.1 10 Sudoeste 41 Sudeste 0 -- -- 63
2020-11-25 19:00:00 13.3 6 Sudeste 37 Este 0 -- -- 59
2020-11-25 18:00:00 13.6 16 Este 41 Este 0 -- -- 59
2020-11-25 17:00:00 14.2 11 Sur 34 Sudeste 0 -- -- 56
2020-11-25 16:00:00 14.7 12 Sur 38 Sudeste 0 -- -- 55
2020-11-25 15:00:00 14.7 14 Sur 36 Sudeste 0 -- -- 57
2020-11-25 14:00:00 13.6 11 Sudoeste 35 Sudeste 0 -- -- 62
2020-11-25 13:00:00 13.3 10 Sudoeste 34 Sudeste 0 -- -- 63
2020-11-25 12:00:00 13.5 10 Sudoeste 31 Oeste 0 -- -- 66
2020-11-25 11:00:00 12.2 8 Sudoeste 26 Sur 0 -- -- 72
2020-11-25 10:00:00 10.7 14 Sur 44 Sudeste 0 -- -- 74
2020-11-25 09:00:00 10.5 23 Sudeste 42 Sudeste 0 -- -- 74
2020-11-25 08:00:00 10.3 14 Sur 42 Sur 0 -- -- 75
2020-11-25 07:00:00 10.3 23 Sur 45 Sudeste 0 -- -- 75
2020-11-25 06:00:00 10.3 18 Sudeste 38 Sudeste 0 -- -- 74
2020-11-25 05:00:00 10.2 12 Sur 40 Sur 0 -- -- 75
2020-11-25 04:00:00 10.4 17 Sur 32 Sur 0 -- -- 74
2020-11-25 03:00:00 10.2 10 Oeste 32 Sudoeste 0 -- -- 74
2020-11-25 02:00:00 10.5 9 Sudoeste 38 Sur 0 -- -- 70
2020-11-25 01:00:00 11.1 6 Sudoeste 19 Sur 0 -- -- 62
2020-11-25 00:00:00 11.4 8 Oeste 30 Sudoeste 0 -- -- 57
2020-11-24 23:00:00 11.2 15 Oeste 30 Oeste 0 -- -- 59
2020-11-24 22:00:00 11.6 14 Oeste 26 Sudoeste 0 -- -- 56
2020-11-24 21:00:00 11.5 16 Oeste 32 Oeste 0 -- -- 58
2020-11-24 20:00:00 11.8 9 Oeste 24 Oeste 0 -- -- 56
2020-11-24 19:00:00 12.1 6 Sudoeste 19 Sur 0 -- -- 57
2020-11-24 18:00:00 12.7 4 Sudoeste 15 Noroeste 0 -- -- 54
2020-11-24 17:00:00 13.8 6 Sur 22 Sudeste 0 -- -- 51
2020-11-24 16:00:00 15.1 5 Sudoeste 17 Sudoeste 0 -- -- 51
2020-11-24 15:00:00 15.5 6 Sudeste 13 Este 0 -- -- 50
2020-11-24 14:00:00 14.7 9 Sudoeste 24 Sudoeste 0 -- -- 52
2020-11-24 13:00:00 14 9 Oeste 22 Oeste 0 -- -- 53
2020-11-24 12:00:00 15.1 6 Oeste 31 Sudoeste 0 -- -- 49
2020-11-24 11:00:00 13.3 12 Oeste 25 Noroeste 0 -- -- 51
2020-11-24 10:00:00 11.7 11 Sudeste 36 Sudeste 0 -- -- 57
2020-11-24 09:00:00 9.3 8 Oeste 20 Oeste 0 -- -- 62
2020-11-24 08:00:00 8.5 9 Oeste 23 Oeste 0 -- -- 67
2020-11-24 07:00:00 6.4 6 Noroeste 13 Noroeste 0 -- -- 77
2020-11-24 06:00:00 4.1 3 Noroeste 10 Sudeste 0 -- -- 95
2020-11-24 05:00:00 3.4 4 Este 10 Sur 0 -- -- 99
2020-11-24 04:00:00 3.1 2 Norte 7 Noroeste 0 -- -- 100
2020-11-24 03:00:00 3.5 2 Noroeste 5 Noroeste 0 -- -- 99
2020-11-24 02:00:00 3.8 2 Oeste 5 Sur 0 -- -- 98
2020-11-24 01:00:00 3.7 4 Sudoeste 6 Sudoeste 0 -- -- 96
2020-11-24 00:00:00 4.7 2 Oeste 3 Oeste 0 -- -- 95
2020-11-23 23:00:00 5.4 0 Calma 4 Sudoeste 0 -- -- 93
2020-11-23 22:00:00 5.6 3 Noroeste 4 Noroeste 0 -- -- 92
2020-11-23 21:00:00 6.7 0 Calma 5 Sudoeste 0 -- -- 87
2020-11-23 20:00:00 7.6 0 Calma 4 Oeste 0 -- -- 82
2020-11-23 19:00:00 8.7 4 Sudoeste 6 Oeste 0 -- -- 78
2020-11-23 18:00:00 10.8 3 Oeste 10 Este 0 -- -- 70
2020-11-23 17:00:00 13 2 Este 11 Este 0 -- -- 65
2020-11-23 16:00:00 13.9 7 Este 11 Este 0 -- -- 60
2020-11-23 15:00:00 13.8 6 Este 14 Este 0 -- -- 56
2020-11-23 14:00:00 12.3 4 Sudeste 6 Sudeste 0 -- -- 68
2020-11-23 13:00:00 10.6 3 Sudeste 7 Sudeste 0 -- -- 79
2020-11-23 12:00:00 7.8 3 Sur 6 Sudeste 0 -- -- 100
2020-11-23 11:00:00 4.6 0 Calma 6 Sudeste 0 -- -- 100
2020-11-23 10:00:00 2.5 2 Sudeste 5 Oeste 0 -- -- 100
2020-11-23 09:00:00 1.7 2 Oeste 4 Oeste 0 -- -- 100
2020-11-23 08:00:00 1.4 0 Calma 5 Noroeste 0 -- -- 100
2020-11-23 07:00:00 2.6 0 Calma 4 Sudoeste 0 -- -- 100
2020-11-23 06:00:00 2.5 0 Calma 6 Oeste 0 -- -- 99
2020-11-23 05:00:00 2.7 3 Oeste 5 Sudoeste 0 -- -- 100
2020-11-23 04:00:00 3 3 Oeste 5 Sudoeste 0 -- -- 99
2020-11-23 03:00:00 3.4 3 Oeste 4 Oeste 0 -- -- 98
2020-11-23 02:00:00 3.5 0 Calma 4 Noroeste 0 -- -- 98
2020-11-23 01:00:00 3.8 0 Calma 5 Sudoeste 0 -- -- 98
2020-11-23 00:00:00 4.2 0 Calma 5 Oeste 0 -- -- 96
2020-11-22 23:00:00 5 3 Oeste 7 Sudoeste 0 -- -- 95
2020-11-22 22:00:00 5.7 0 Calma 5 Oeste 0 -- -- 91
2020-11-22 21:00:00 6.3 0 Calma 5 Sudoeste 0 -- -- 88
2020-11-22 20:00:00 7.6 0 Calma 7 Oeste 0 -- -- 82
2020-11-22 19:00:00 9.1 3 Oeste 5 Oeste 0 -- -- 74
2020-11-22 18:00:00 10.7 5 Oeste 10 Este 0 -- -- 68
2020-11-22 17:00:00 14 5 Este 9 Nordeste 0 -- -- 55
2020-11-22 16:00:00 15.1 6 Este 10 Este 0 -- -- 47
2020-11-22 15:00:00 15.2 5 Sudeste 9 Sur 0 -- -- 47
2020-11-22 14:00:00 14.4 3 Sudeste 10 Sudeste 0 -- -- 56
2020-11-22 13:00:00 12.6 4 Sudeste 7 Este 0 -- -- 63
2020-11-22 12:00:00 10 3 Sudeste 6 Sudeste 0 -- -- 67
2020-11-22 11:00:00 6.9 3 Sudeste 8 Este 0 -- -- 83
2020-11-22 10:00:00 4.2 0 Calma 5 Sudeste 0 -- -- 98
2020-11-22 09:00:00 1.5 2 Oeste 5 Noroeste 0 -- -- 100
2020-11-22 08:00:00 0.7 3 Sudoeste 4 Sudoeste 0 -- -- 100
2020-11-22 07:00:00 1.6 0 Calma 5 Sudoeste 0 -- -- 100
2020-11-22 06:00:00 1.2 2 Noroeste 6 Este 0 -- -- 100
2020-11-22 05:00:00 2 2 Oeste 5 Noroeste 0 -- -- 100
2020-11-22 04:00:00 1.6 3 Noroeste 5 Noroeste 0 -- -- 100
2020-11-22 03:00:00 1.8 3 Oeste 5 Sudoeste 0 -- -- 100
2020-11-22 02:00:00 1.9 0 Calma 5 Noroeste 0 -- -- 99
2020-11-22 01:00:00 2.5 0 Calma 6 Oeste 0 -- -- 99
2020-11-22 00:00:00 2.8 2 Oeste 5 Sudoeste 0 -- -- 98
2020-11-21 23:00:00 3.5 0 Calma 4 Sudoeste 0 -- -- 97
2020-11-21 22:00:00 4.2 4 Sudoeste 5 Noroeste 0 -- -- 95
2020-11-21 21:00:00 4.8 0 Calma 4 Sudoeste 0 -- -- 94
2020-11-21 20:00:00 5.6 5 Oeste 6 Oeste 0 -- -- 92
2020-11-21 19:00:00 7.3 3 Oeste 5 Sudeste 0 -- -- 84
2020-11-21 18:00:00 8.9 2 Sudeste 12 Este 0 -- -- 77
2020-11-21 17:00:00 10.7 9 Nordeste 19 Este 0 -- -- 69
2020-11-21 16:00:00 12.1 8 Este 15 Sudeste 0 -- -- 61
2020-11-21 15:00:00 12.4 6 Este 10 Sudeste 0 -- -- 59
2020-11-21 14:00:00 11.2 3 Sudeste 10 Sudeste 0 -- -- 61
2020-11-21 13:00:00 9.2 3 Sur 9 Sudeste 0 -- -- 79
2020-11-21 12:00:00 6.2 3 Sudeste 7 Sudeste 0 -- -- 100
2020-11-21 11:00:00 3.3 3 Sur 8 Oeste 0 -- -- 100
2020-11-21 10:00:00 2.6 3 Sudeste 6 Sudoeste 0 -- -- 100
2020-11-21 09:00:00 2.4 4 Sur 8 Sudeste 0 -- -- 100
2020-11-21 08:00:00 2.4 3 Noroeste 7 Noroeste 0 -- -- 100
2020-11-21 07:00:00 2.2 0 Calma 5 Noroeste 0 -- -- 100
2020-11-21 06:00:00 2.6 2 Oeste 4 Noroeste 0 -- -- 100
2020-11-21 05:00:00 2.6 2 Oeste 4 Sudeste 0 -- -- 100
2020-11-21 04:00:00 2.3 4 Oeste 5 Oeste 0 -- -- 100
2020-11-21 03:00:00 3.3 2 Noroeste 5 Noroeste 0 -- -- 99
2020-11-21 02:00:00 3.4 2 Sudoeste 4 Oeste 0 -- -- 99
2020-11-21 01:00:00 3.8 0 Calma 4 Este 0 -- -- 98
2020-11-21 00:00:00 4.5 0 Calma 4 Este 0 -- -- 97
2020-11-20 23:00:00 4.9 3 Este 3 Este 0 -- -- 95
2020-11-20 22:00:00 5.3 3 Oeste 4 Oeste 0 -- -- 93
2020-11-20 21:00:00 5.8 2 Este 7 Sudoeste 0 -- -- 91
2020-11-20 20:00:00 6.6 4 Sudoeste 7 Sudoeste 0 -- -- 88
2020-11-20 19:00:00 8.1 3 Norte 9 Este 0 -- -- 80
2020-11-20 18:00:00 9.1 5 Nordeste 17 Nordeste 0 -- -- 73
2020-11-20 17:00:00 10.2 7 Este 21 Este 0 -- -- 71
2020-11-20 16:00:00 10.6 6 Este 23 Este 0 -- -- 70
2020-11-20 15:00:00 11.3 12 Este 24 Este 0 -- -- 71
2020-11-20 14:00:00 11.7 10 Este 18 Este 0 -- -- 72
2020-11-20 13:00:00 11.4 7 Este 22 Sudeste 0 -- -- 78
2020-11-20 12:00:00 11.2 9 Este 21 Sudeste 0 -- -- 77
2020-11-20 11:00:00 10.7 4 Sudeste 12 Sudeste 0 -- -- 92
2020-11-20 10:00:00 9.4 3 Sudeste 6 Sudeste 0 -- -- 100
2020-11-20 09:00:00 8.4 3 Oeste 6 Este 0.4 -- -- 100
2020-11-20 08:00:00 8.2 2 Noroeste 9 Este 0.2 -- -- 100
2020-11-20 07:00:00 8.1 2 Este 5 Este 0 -- -- 100
2020-11-20 06:00:00 8 0 Calma 5 Sur 0 -- -- 100
2020-11-20 05:00:00 8.3 3 Sudeste 7 Sudeste 0 -- -- 100
2020-11-20 04:00:00 8.4 0 Calma 4 Sudeste 0 -- -- 99
2020-11-20 03:00:00 8.4 2 Este 9 Oeste 0 -- -- 99
2020-11-20 02:00:00 8.5 5 Oeste 8 Nordeste 0 -- -- 98
2020-11-20 01:00:00 8.7 5 Nordeste 9 Nordeste 0.2 -- -- 98
2020-11-20 00:00:00 9 3 Nordeste 5 Noroeste 0 -- -- 98
2020-11-19 23:00:00 9.1 3 Sudeste 5 Sudoeste 0 -- -- 98
2020-11-19 22:00:00 9.1 4 Este 8 Este 0 -- -- 98
2020-11-19 21:00:00 9.1 2 Nordeste 5 Sudeste 0 -- -- 98
2020-11-19 20:00:00 9.2 3 Oeste 12 Nordeste 0 -- -- 97
2020-11-19 19:00:00 9.6 4 Norte 13 Nordeste 0.2 -- -- 94
2020-11-19 18:00:00 9.9 6 Nordeste 16 Nordeste 0 -- -- 92
2020-11-19 17:00:00 10.7 6 Norte 15 Noroeste 0 -- -- 87
2020-11-19 16:00:00 11.5 4 Noroeste 21 Nordeste 0 -- -- 89
2020-11-19 15:00:00 12.3 4 Nordeste 21 Noroeste 0 -- -- 86
2020-11-19 14:00:00 13 7 Oeste 21 Noroeste 0 -- -- 84
2020-11-19 13:00:00 13.1 4 Sudeste 11 Norte 0 -- -- 89
2020-11-19 12:00:00 12.5 6 Nordeste 13 Este 0 -- -- 95
2020-11-19 11:00:00 12.1 3 Noroeste 16 Noroeste 0 -- -- 98
2020-11-19 10:00:00 11.7 5 Nordeste 23 Noroeste 0 -- -- 100
2020-11-19 09:00:00 10.6 4 Sur 8 Este 0.4 -- -- 98
2020-11-19 08:00:00 10.5 2 Sur 5 Sudoeste 0 -- -- 96
2020-11-19 07:00:00 10.7 2 Sudeste 9 Noroeste 0 -- -- 96
2020-11-19 06:00:00 9.7 3 Oeste 6 Noroeste 0 -- -- 99
2020-11-19 05:00:00 9.5 3 Norte 6 Noroeste 0 -- -- 98
2020-11-19 04:00:00 9.5 3 Sudoeste 4 Oeste 0 -- -- 99
2020-11-19 03:00:00 9.6 0 Calma 5 Sudoeste 0 -- -- 98
2020-11-19 02:00:00 9.8 3 Oeste 4 Oeste 0 -- -- 97
2020-11-19 01:00:00 10.2 0 Calma 4 Este 0 -- -- 95
2020-11-19 00:00:00 11.2 3 Oeste 5 Oeste 0 -- -- 94
2020-11-18 23:00:00 11.6 0 Calma 4 Sudoeste 0 -- -- 93
2020-11-18 22:00:00 12.2 0 Calma 5 Noroeste 0 -- -- 90
2020-11-18 21:00:00 13.4 0 Calma 3 Noroeste 0 -- -- 85
2020-11-18 20:00:00 14.9 3 Noroeste 7 Oeste 0 -- -- 79
2020-11-18 19:00:00 16.1 2 Este 10 Sudeste 0 -- -- 73
2020-11-18 18:00:00 18.4 4 Este 12 Este 0 -- -- 67
2020-11-18 17:00:00 21 5 Este 12 Este 0 -- -- 56
2020-11-18 16:00:00 22 5 Este 10 Sur 0 -- -- 52
2020-11-18 15:00:00 22.9 5 Oeste 12 Sur 0 -- -- 51
2020-11-18 14:00:00 22.2 7 Sur 15 Sudeste 0 -- -- 53
2020-11-18 13:00:00 21.6 9 Sur 21 Sur 0 -- -- 53
2020-11-18 12:00:00 20.6 6 Sudoeste 19 Sudoeste 0 -- -- 58
2020-11-18 11:00:00 18.7 5 Sudoeste 20 Sudeste 0 -- -- 56
2020-11-18 10:00:00 16.7 5 Sudoeste 24 Oeste 0 -- -- 59
2020-11-18 09:00:00 15.4 10 Oeste 24 Oeste 0 -- -- 61
2020-11-18 08:00:00 15 10 Noroeste 19 Noroeste 0 -- -- 61
2020-11-18 07:00:00 15.1 7 Oeste 24 Sudoeste 0 -- -- 58
2020-11-18 06:00:00 14.9 11 Noroeste 26 Oeste 0 -- -- 59
2020-11-18 05:00:00 15.4 12 Oeste 28 Oeste 0 -- -- 57
2020-11-18 04:00:00 15.7 13 Oeste 42 Oeste 0 -- -- 55
2020-11-18 03:00:00 15.9 13 Sudoeste 32 Oeste 0 -- -- 55
2020-11-18 02:00:00 16 9 Oeste 40 Oeste 0 -- -- 52
2020-11-18 01:00:00 15.8 17 Oeste 40 Oeste 0 -- -- 48
2020-11-18 00:00:00 16.4 16 Oeste 40 Oeste 0 -- -- 44
2020-11-17 23:00:00 16.5 13 Sudoeste 30 Sudeste 0 -- -- 46
2020-11-17 22:00:00 16 9 Sudoeste 19 Sudoeste 0 -- -- 52
2020-11-17 21:00:00 14.8 9 Oeste 17 Oeste 0 -- -- 62
2020-11-17 20:00:00 12.2 3 Noroeste 8 Norte 0 -- -- 81
2020-11-17 19:00:00 13 3 Noroeste 4 Sudeste 0 -- -- 79
2020-11-17 18:00:00 14.8 3 Oeste 4 Oeste 0 -- -- 70
2020-11-17 17:00:00 17.7 0 Calma 5 Noroeste 0 -- -- 64
2020-11-17 16:00:00 17.8 2 Sudeste 5 Sudeste 0 -- -- 59
2020-11-17 15:00:00 17.5 4 Sur 8 Sudeste 0 -- -- 62
2020-11-17 14:00:00 15.8 4 Sudoeste 7 Sudoeste 0.2 -- -- 63
2020-11-17 13:00:00 13.1 3 Sur 9 Sudeste 0 -- -- 80
2020-11-17 12:00:00 9.8 3 Sudoeste 7 Sur 0 -- -- 100
2020-11-17 11:00:00 7 3 Sur 6 Oeste 0 -- -- 100
2020-11-17 10:00:00 5.9 4 Oeste 8 Oeste 0 -- -- 100
2020-11-17 09:00:00 5.6 2 Noroeste 6 Oeste 0 -- -- 100
2020-11-17 08:00:00 5.7 0 Calma 6 Noroeste 0 -- -- 100
2020-11-17 07:00:00 5.9 4 Oeste 8 Oeste 0 -- -- 100
2020-11-17 06:00:00 6.3 3 Oeste 6 Oeste 0 -- -- 100
2020-11-17 05:00:00 6.5 3 Noroeste 5 Noroeste 0 -- -- 100
2020-11-17 04:00:00 6.8 0 Calma 8 Sudoeste 0 -- -- 100
2020-11-17 03:00:00 6.9 3 Oeste 5 Oeste 0 -- -- 100
2020-11-17 02:00:00 7.2 2 Sudeste 7 Noroeste 0 -- -- 100
2020-11-17 01:00:00 7.4 2 Oeste 5 Noroeste 0 -- -- 100
2020-11-17 00:00:00 7.4 2 Sudoeste 5 Oeste 0 -- -- 100
2020-11-16 23:00:00 7.6 3 Oeste 5 Oeste 0 -- -- 99
2020-11-16 22:00:00 8.2 0 Calma 6 Noroeste 0 -- -- 99
2020-11-16 21:00:00 8.7 0 Calma 5 Oeste 0 -- -- 97
2020-11-16 20:00:00 9.4 0 Calma 5 Este 0.2 -- -- 96
2020-11-16 19:00:00 10.5 0 Calma 5 Sudeste 0 -- -- 91
2020-11-16 18:00:00 11.9 3 Nordeste 6 Este 0 -- -- 84
2020-11-16 17:00:00 12.8 3 Nordeste 7 Este 0 -- -- 81
2020-11-16 16:00:00 13.1 3 Este 12 Sudeste 0 -- -- 83
2020-11-16 15:00:00 13.3 6 Este 13 Sudeste 0 -- -- 83
2020-11-16 14:00:00 13.2 5 Este 9 Este 0 -- -- 83
2020-11-16 13:00:00 13 5 Sudeste 15 Oeste 0 -- -- 89
2020-11-16 12:00:00 12.4 3 Sur 8 Este 0.4 -- -- 97
2020-11-16 11:00:00 12.2 3 Sudoeste 11 Sudeste 0 -- -- 97
2020-11-16 10:00:00 11.5 2 Sudoeste 5 Oeste 0 -- -- 100
2020-11-16 09:00:00 10.8 2 Sur 4 Sudoeste 0 -- -- 100
2020-11-16 08:00:00 10.6 0 Calma 6 Este 0.2 -- -- 100
2020-11-16 07:00:00 10.6 2 Nordeste 9 Nordeste 0.2 -- -- 100
2020-11-16 06:00:00 10.8 4 Nordeste 8 Este 0.2 -- -- 100
2020-11-16 05:00:00 10.9 4 Este 9 Este 0.2 -- -- 100
2020-11-16 04:00:00 11 0 Calma 4 Este 0.4 -- -- 100
2020-11-16 03:00:00 11 2 Noroeste 4 Noroeste 0.4 -- -- 100
2020-11-16 02:00:00 10.9 0 Calma 8 Este 0.6 -- -- 99
2020-11-16 01:00:00 11 5 Nordeste 9 Este 0.4 -- -- 98
2020-11-16 00:00:00 11.4 4 Este 17 Este 0 -- -- 96
2020-11-15 23:00:00 11.7 5 Nordeste 14 Este 0.2 -- -- 99
2020-11-15 22:00:00 12.5 8 Este 14 Este 2.6 -- -- 99
2020-11-15 21:00:00 13.3 3 Este 6 Este 1 -- -- 99
2020-11-15 20:00:00 13.5 5 Sudeste 10 Sudeste 2.6 -- -- 98
2020-11-15 19:00:00 14.2 5 Oeste 18 Este 1.2 -- -- 96
2020-11-15 18:00:00 14.5 10 Nordeste 28 Este 0 -- -- 94
2020-11-15 17:00:00 15.3 20 Este 32 Este 0 -- -- 91
2020-11-15 16:00:00 20.4 7 Sur 30 Sudoeste 0 -- -- 64
2020-11-15 15:00:00 20.6 13 Sudoeste 53 Oeste 0 -- -- 63
2020-11-15 14:00:00 20.3 19 Oeste 40 Oeste 0 -- -- 63
2020-11-15 13:00:00 19.8 13 Oeste 35 Sudoeste 0 -- -- 64
2020-11-15 12:00:00 19.5 18 Oeste 35 Oeste 0 -- -- 65
2020-11-15 11:00:00 18.4 9 Sur 27 Sur 0 -- -- 68
2020-11-15 10:00:00 17.5 10 Sudoeste 29 Sudoeste 0 -- -- 67
2020-11-15 09:00:00 16.6 5 Sudoeste 20 Oeste 0 -- -- 68
2020-11-15 08:00:00 15.5 5 Sudoeste 22 Sudoeste 0 -- -- 70
2020-11-15 07:00:00 15.6 15 Sur 32 Sur 0 -- -- 70
2020-11-15 06:00:00 15.1 7 Sudoeste 33 Sudeste 0 -- -- 71
2020-11-15 05:00:00 15.2 12 Sur 33 Sudoeste 0 -- -- 72
2020-11-15 04:00:00 15.5 11 Sur 36 Sudoeste 0 -- -- 71
2020-11-15 03:00:00 15.7 10 Sur 31 Oeste 0 -- -- 70
2020-11-15 02:00:00 15.6 12 Sur 32 Sur 0 -- -- 70
2020-11-15 01:00:00 15.6 14 Sudoeste 29 Sudoeste 0 -- -- 70
2020-11-15 00:00:00 14.7 7 Oeste 26 Oeste 0 -- -- 74
2020-11-14 23:00:00 14.5 10 Sudoeste 25 Sudoeste 0 -- -- 75
2020-11-14 22:00:00 14.5 12 Oeste 31 Oeste 0 -- -- 75
2020-11-14 21:00:00 14.6 9 Oeste 26 Sudoeste 0 -- -- 73
2020-11-14 20:00:00 14.4 10 Sudoeste 39 Oeste 0 -- -- 73
2020-11-14 19:00:00 14.4 8 Sudoeste 29 Sudoeste 0 -- -- 71
2020-11-14 18:00:00 14.7 10 Sudoeste 31 Sur 0 -- -- 69
2020-11-14 17:00:00 15.5 11 Sudoeste 26 Sudoeste 0 -- -- 67
2020-11-14 16:00:00 16.9 11 Oeste 32 Oeste 0 -- -- 63
2020-11-14 15:00:00 16.2 13 Oeste 31 Sudoeste 0 -- -- 64
2020-11-14 14:00:00 15.2 10 Sur 44 Sudeste 0 -- -- 69
2020-11-14 13:00:00 14.9 14 Sudeste 35 Sur 0 -- -- 69
2020-11-14 12:00:00 14.2 11 Sur 30 Oeste 0 -- -- 72
2020-11-14 11:00:00 13.7 15 Sudoeste 31 Sudoeste 0 -- -- 73
2020-11-14 10:00:00 13.6 12 Sur 29 Sur 0 -- -- 73
2020-11-14 09:00:00 12.8 11 Sudoeste 36 Sur 0 -- -- 75
2020-11-14 08:00:00 11.8 13 Oeste 29 Sudoeste 0 -- -- 78
2020-11-14 07:00:00 12 12 Sudoeste 27 Sudoeste 0 -- -- 74
2020-11-14 06:00:00 12.1 14 Oeste 35 Oeste 0 -- -- 71
2020-11-14 05:00:00 12.8 18 Oeste 36 Oeste 0 -- -- 69
2020-11-14 04:00:00 12.9 19 Oeste 33 Oeste 0 -- -- 69
2020-11-14 03:00:00 12.9 14 Oeste 27 Oeste 0 -- -- 70
2020-11-14 02:00:00 12.6 10 Oeste 23 Oeste 0 -- -- 72
2020-11-14 01:00:00 12.9 9 Sudoeste 31 Oeste 0 -- -- 70
2020-11-14 00:00:00 12.7 11 Oeste 30 Oeste 0 -- -- 72
2020-11-13 23:00:00 12.9 15 Oeste 24 Oeste 0 -- -- 71
2020-11-13 22:00:00 11.4 9 Oeste 16 Oeste 0 -- -- 78
2020-11-13 21:00:00 12.5 4 Noroeste 17 Oeste 0 -- -- 73
2020-11-13 20:00:00 14 8 Oeste 24 Oeste 0 -- -- 65
2020-11-13 19:00:00 14.8 12 Oeste 21 Oeste 0 -- -- 65
2020-11-13 18:00:00 15.6 10 Oeste 19 Oeste 0 -- -- 63
2020-11-13 17:00:00 17.4 7 Sur 19 Sudeste 0 -- -- 59
2020-11-13 16:00:00 17.8 10 Sur 21 Sur 0 -- -- 59
2020-11-13 15:00:00 18.7 8 Sur 19 Sudoeste 0 -- -- 58
2020-11-13 14:00:00 18.5 9 Sur 21 Sudeste 0 -- -- 59
2020-11-13 13:00:00 18.5 9 Sur 22 Sudeste 0 -- -- 62
2020-11-13 12:00:00 16.8 5 Oeste 12 Sudoeste 0 -- -- 64
2020-11-13 11:00:00 14.8 5 Oeste 13 Oeste 0 -- -- 69
2020-11-13 10:00:00 14.1 5 Este 14 Oeste 0 -- -- 71
2020-11-13 09:00:00 13.4 11 Oeste 21 Oeste 0 -- -- 73
2020-11-13 08:00:00 12.9 10 Oeste 16 Sudoeste 0 -- -- 72
2020-11-13 07:00:00 13.6 9 Oeste 24 Oeste 0 -- -- 67
2020-11-13 06:00:00 14.1 13 Oeste 35 Oeste 0 -- -- 64
2020-11-13 05:00:00 14.3 14 Oeste 28 Sudoeste 0 -- -- 60
2020-11-13 04:00:00 14.8 13 Oeste 28 Oeste 0 -- -- 57
2020-11-13 03:00:00 15.1 10 Noroeste 24 Oeste 0 -- -- 55
2020-11-13 02:00:00 15.2 12 Oeste 23 Oeste 0 -- -- 55
2020-11-13 01:00:00 15 12 Oeste 22 Oeste 0 -- -- 57
2020-11-13 00:00:00 14.9 10 Oeste 21 Oeste 0 -- -- 56
2020-11-12 23:00:00 13.8 10 Oeste 20 Oeste 0 -- -- 60
2020-11-12 22:00:00 14.2 6 Noroeste 22 Oeste 0 -- -- 60
2020-11-12 21:00:00 15.4 12 Oeste 23 Sudoeste 0 -- -- 57
2020-11-12 20:00:00 15.4 12 Oeste 18 Oeste 0 -- -- 57
2020-11-12 19:00:00 15.9 8 Oeste 19 Oeste 0 -- -- 56
2020-11-12 18:00:00 16.9 5 Sudoeste 23 Sudeste 0 -- -- 52
2020-11-12 17:00:00 19.1 8 Sudoeste 21 Sudeste 0 -- -- 53
2020-11-12 16:00:00 19.8 10 Sur 23 Sudeste 0 -- -- 52
2020-11-12 15:00:00 20.9 8 Sur 17 Sudoeste 0 -- -- 53
2020-11-12 14:00:00 19.9 3 Oeste 13 Sudoeste 0 -- -- 56
2020-11-12 13:00:00 18.7 3 Sudeste 9 Sudeste 0 -- -- 59
2020-11-12 12:00:00 16.3 5 Sur 9 Sudeste 0 -- -- 67
2020-11-12 11:00:00 13.5 5 Sudeste 9 Sudeste 0 -- -- 79
2020-11-12 10:00:00 9.6 3 Sudeste 5 Sudeste 0 -- -- 92
2020-11-12 09:00:00 7.8 4 Este 7 Este 0 -- -- 97
2020-11-12 08:00:00 7.4 2 Noroeste 5 Sudoeste 0 -- -- 94
2020-11-12 07:00:00 7.8 0 Calma 5 Noroeste 0 -- -- 93
2020-11-12 06:00:00 8.3 0 Calma 5 Oeste 0 -- -- 91
2020-11-12 05:00:00 9.2 2 Oeste 4 Sudeste 0 -- -- 87
2020-11-12 04:00:00 10.1 2 Noroeste 5 Este 0 -- -- 82
2020-11-12 03:00:00 11.2 0 Calma 6 Sudeste 0 -- -- 76
2020-11-12 02:00:00 12.3 3 Sudeste 12 Noroeste 0 -- -- 73
2020-11-12 01:00:00 14.2 6 Noroeste 12 Oeste 0 -- -- 61
2020-11-12 00:00:00 14.5 5 Oeste 12 Oeste 0 -- -- 60
2020-11-11 23:00:00 14.8 6 Oeste 13 Oeste 0 -- -- 59
2020-11-11 22:00:00 15 4 Sudoeste 23 Sudoeste 0 -- -- 59
2020-11-11 21:00:00 15 6 Oeste 24 Oeste 0 -- -- 60
2020-11-11 20:00:00 14.8 5 Oeste 24 Oeste 0 -- -- 62
2020-11-11 19:00:00 14.8 12 Oeste 28 Oeste 0 -- -- 62
2020-11-11 18:00:00 15.4 11 Oeste 30 Sudeste 0 -- -- 61
2020-11-11 17:00:00 16 14 Sur 29 Sudeste 0 -- -- 62
2020-11-11 16:00:00 17.2 11 Sur 27 Sudeste 0 -- -- 58
2020-11-11 15:00:00 17.9 13 Sur 30 Sudeste 0 -- -- 56
2020-11-11 14:00:00 17.7 12 Sur 28 Sudeste 0 -- -- 62
2020-11-11 13:00:00 17.9 10 Sur 30 Sudeste 0 -- -- 62
2020-11-11 12:00:00 16.8 13 Sur 28 Sur 0 -- -- 64
2020-11-11 11:00:00 15.3 11 Oeste 32 Oeste 0 -- -- 69
2020-11-11 10:00:00 13.8 12 Oeste 27 Oeste 0 -- -- 72
2020-11-11 09:00:00 12.1 9 Oeste 28 Oeste 0 -- -- 81
2020-11-11 08:00:00 11.2 10 Oeste 21 Sur 0 -- -- 85
2020-11-11 07:00:00 8.7 5 Oeste 11 Norte 0 -- -- 100
2020-11-11 06:00:00 8.3 4 Sudoeste 12 Noroeste 0 -- -- 100
2020-11-11 05:00:00 8.6 3 Oeste 6 Oeste 0 -- -- 100
2020-11-11 04:00:00 8.9 2 Oeste 6 Oeste 0 -- -- 100
2020-11-11 03:00:00 9.3 3 Noroeste 5 Noroeste 0 -- -- 100
2020-11-11 02:00:00 9.7 2 Oeste 5 Noroeste 0 -- -- 99
2020-11-11 01:00:00 9.6 3 Sudoeste 5 Sudoeste 0 -- -- 98
2020-11-11 00:00:00 9.8 4 Noroeste 6 Oeste 0 -- -- 98
2020-11-10 23:00:00 10.1 4 Oeste 6 Sudoeste 0 -- -- 98
2020-11-10 22:00:00 10.4 0 Calma 4 Oeste 0 -- -- 98
2020-11-10 21:00:00 10.7 3 Oeste 5 Oeste 0 -- -- 98
2020-11-10 20:00:00 10.9 3 Noroeste 5 Sudeste 0 -- -- 96
2020-11-10 19:00:00 12.1 0 Calma 8 Este 0 -- -- 94
2020-11-10 18:00:00 13 3 Este 8 Este 0 -- -- 90
2020-11-10 17:00:00 14 0 Calma 5 Este 0 -- -- 89
2020-11-10 16:00:00 14.1 3 Noroeste 10 Este 0 -- -- 91
2020-11-10 15:00:00 14.1 8 Este 12 Este 0 -- -- 90
2020-11-10 14:00:00 14.3 5 Este 9 Este 1 -- -- 89
2020-11-10 13:00:00 14.4 11 Noroeste 16 Noroeste 0.2 -- -- 84
2020-11-10 12:00:00 14.3 5 Sudeste 9 Sudeste 0 -- -- 87
2020-11-10 11:00:00 12.7 2 Sudeste 8 Este 0 -- -- 95
2020-11-10 10:00:00 10.5 3 Este 6 Este 0 -- -- 98
2020-11-10 09:00:00 10.2 3 Noroeste 4 Oeste 0 -- -- 98
2020-11-10 08:00:00 9.5 0 Calma 4 Este 0.8 -- -- 97
2020-11-10 07:00:00 9.1 0 Calma 5 Este 0 -- -- 97
2020-11-10 06:00:00 8.9 3 Oeste 4 Oeste 0 -- -- 96
2020-11-10 05:00:00 9.2 0 Calma 5 Noroeste 0 -- -- 96
2020-11-10 04:00:00 8.7 0 Calma 5 Oeste 0 -- -- 97
2020-11-10 03:00:00 8.4 5 Oeste 6 Oeste 0 -- -- 97
2020-11-10 02:00:00 8.9 0 Calma 7 Oeste 0 -- -- 94
2020-11-10 01:00:00 10.1 4 Oeste 7 Sudoeste 0 -- -- 91
2020-11-10 00:00:00 10 2 Oeste 5 Noroeste 0 -- -- 92
2020-11-09 23:00:00 10.2 2 Sudoeste 7 Sudoeste 0 -- -- 91
2020-11-09 22:00:00 11 4 Sudoeste 7 Sudoeste 0 -- -- 88
2020-11-09 21:00:00 12.3 2 Oeste 4 Oeste 0 -- -- 81
2020-11-09 20:00:00 13.6 2 Noroeste 8 Oeste 0 -- -- 77
2020-11-09 19:00:00 14.8 4 Oeste 9 Noroeste 0 -- -- 72
2020-11-09 18:00:00 16.8 4 Oeste 15 Oeste 0 -- -- 65
2020-11-09 17:00:00 19.2 8 Oeste 23 Oeste 0 -- -- 56
2020-11-09 16:00:00 19.7 9 Oeste 32 Oeste 0 -- -- 52
2020-11-09 15:00:00 18.8 17 Oeste 31 Oeste 0 -- -- 53
2020-11-09 14:00:00 19.6 14 Sudeste 26 Sudeste 0 -- -- 55
2020-11-09 13:00:00 19 12 Sur 29 Sudeste 0 -- -- 59
2020-11-09 12:00:00 18 15 Sur 27 Sur 0 -- -- 62
2020-11-09 11:00:00 15.9 5 Norte 23 Oeste 0 -- -- 70
2020-11-09 10:00:00 14.8 6 Oeste 23 Oeste 0 -- -- 70
2020-11-09 09:00:00 14.6 7 Oeste 22 Oeste 0 -- -- 69
2020-11-09 08:00:00 14.5 10 Oeste 33 Oeste 0 -- -- 68
2020-11-09 07:00:00 14.5 13 Oeste 29 Oeste 0 -- -- 69
2020-11-09 06:00:00 14.6 12 Oeste 22 Sudoeste 0 -- -- 67
2020-11-09 05:00:00 14.2 9 Oeste 17 Oeste 0 -- -- 68
2020-11-09 04:00:00 14.6 4 Sur 15 Sudeste 0 -- -- 65
2020-11-09 03:00:00 15.2 6 Oeste 14 Noroeste 0 -- -- 62
2020-11-09 02:00:00 15 4 Oeste 19 Sudoeste 0 -- -- 65
2020-11-09 01:00:00 15.4 6 Oeste 26 Sudeste 0 -- -- 64
2020-11-09 00:00:00 15.7 8 Sur 30 Sudoeste 0 -- -- 64
2020-11-08 23:00:00 16.2 11 Sur 23 Sudeste 0 -- -- 61
2020-11-08 22:00:00 16.3 12 Sur 45 Sudeste 0 -- -- 61
2020-11-08 21:00:00 16.3 19 Sudeste 40 Sur 0 -- -- 62
2020-11-08 20:00:00 16.5 8 Sudoeste 26 Sudeste 0 -- -- 63
2020-11-08 19:00:00 16.4 7 Noroeste 21 Oeste 0 -- -- 63
2020-11-08 18:00:00 16.5 7 Sur 27 Sudeste 0 -- -- 64
2020-11-08 17:00:00 17.3 12 Sur 31 Sudeste 0 -- -- 61
2020-11-08 16:00:00 18.5 10 Sur 25 Sudoeste 0 -- -- 59
2020-11-08 15:00:00 18.6 8 Oeste 42 Sudeste 0 -- -- 60
2020-11-08 14:00:00 17.6 17 Sudeste 42 Este 0 -- -- 60
2020-11-08 13:00:00 17.6 12 Sur 28 Sudeste 0 -- -- 65
2020-11-08 12:00:00 17.8 9 Sur 44 Sudeste 0 -- -- 60
2020-11-08 11:00:00 16.8 9 Sudeste 22 Sudoeste 0 -- -- 63
2020-11-08 10:00:00 15.6 11 Oeste 23 Oeste 0 -- -- 65
2020-11-08 09:00:00 14.2 10 Oeste 27 Oeste 0 -- -- 70
2020-11-08 08:00:00 14 13 Oeste 30 Sudoeste 0 -- -- 72
2020-11-08 07:00:00 13.4 6 Sudoeste 19 Sudoeste 0 -- -- 75
2020-11-08 06:00:00 13.4 9 Sudoeste 25 Sudoeste 0 -- -- 76
2020-11-08 05:00:00 14.4 5 Oeste 14 Oeste 0 -- -- 69
2020-11-08 04:00:00 14.9 5 Oeste 23 Oeste 0 -- -- 66
2020-11-08 03:00:00 14.7 3 Oeste 13 Sudeste 0 -- -- 70
2020-11-08 02:00:00 14.6 5 Sudoeste 17 Oeste 0 -- -- 73
2020-11-08 01:00:00 14.9 9 Oeste 19 Sudoeste 0 -- -- 73
2020-11-08 00:00:00 15.2 7 Oeste 17 Sudeste 0 -- -- 72
2020-11-07 23:00:00 15.4 5 Sudoeste 19 Sudoeste 0 -- -- 71
2020-11-07 22:00:00 15.3 4 Oeste 9 Oeste 0 -- -- 69
2020-11-07 21:00:00 15.4 3 Sudoeste 12 Sur 0 -- -- 70
2020-11-07 20:00:00 16 3 Este 13 Oeste 0 -- -- 69
2020-11-07 19:00:00 16.1 3 Sudoeste 10 Oeste 0 -- -- 70
2020-11-07 18:00:00 16.5 8 Oeste 25 Sudeste 0 -- -- 72
2020-11-07 17:00:00 16.9 13 Sudoeste 25 Sudoeste 0 -- -- 73
2020-11-07 16:00:00 16.6 9 Sur 22 Sudeste 0 -- -- 75
2020-11-07 15:00:00 16.6 12 Sur 32 Sur 0 -- -- 76
2020-11-07 14:00:00 16.6 11 Sur 35 Sur 0 -- -- 74
2020-11-07 13:00:00 16.5 19 Sur 37 Sur 0.2 -- -- 76
2020-11-07 12:00:00 16 9 Sur 34 Este 0 -- -- 74
2020-11-07 11:00:00 14.8 15 Noroeste 26 Oeste 0 -- -- 83
2020-11-07 10:00:00 15.3 10 Noroeste 18 Oeste 0 -- -- 80
2020-11-07 09:00:00 14.6 8 Oeste 19 Oeste 2 -- -- 97
2020-11-07 08:00:00 15.3 4 Noroeste 24 Sudeste 4 -- -- 93
2020-11-07 07:00:00 18.2 10 Sur 50 Sudeste 0.4 -- -- 74
2020-11-07 06:00:00 19 31 Sudeste 57 Sudeste 0 -- -- 68
2020-11-07 05:00:00 18.7 27 Sudeste 53 Sudeste 0 -- -- 68
2020-11-07 04:00:00 19.1 29 Sudeste 57 Sudeste 0 -- -- 66
2020-11-07 03:00:00 18.9 15 Este 40 Sudeste 0 -- -- 67
2020-11-07 02:00:00 18.8 18 Este 53 Sudeste 0 -- -- 67
2020-11-07 01:00:00 18.9 26 Sudeste 54 Sudeste 0 -- -- 67
2020-11-07 00:00:00 19.1 11 Sudeste 70 Sudeste 0 -- -- 66
2020-11-06 23:00:00 19.1 34 Sudeste 81 Sudeste 0 -- -- 65
2020-11-06 22:00:00 19.3 28 Sudeste 58 Sudeste 0 -- -- 64
2020-11-06 21:00:00 19.6 32 Sudeste 92 Sudeste 0 -- -- 63
2020-11-06 20:00:00 19.4 28 Sudeste 67 Sudeste 0 -- -- 63
2020-11-06 19:00:00 19.6 38 Sudeste 64 Este 0 -- -- 63
2020-11-06 18:00:00 19.5 35 Sudeste 66 Sudeste 0 -- -- 63
2020-11-06 17:00:00 19.6 19 Sudeste 67 Sudeste 0 -- -- 64
2020-11-06 16:00:00 19.5 26 Sudeste 84 Sudeste 0 -- -- 63
2020-11-06 15:00:00 19.7 27 Sudeste 66 Sudeste 0 -- -- 63
2020-11-06 14:00:00 19.9 13 Oeste 78 Este 0 -- -- 65
2020-11-06 13:00:00 19.3 27 Sudeste 69 Sudeste 0 -- -- 66
2020-11-06 12:00:00 18.9 36 Sudeste 71 Sudeste 0 -- -- 68
2020-11-06 11:00:00 19 28 Sudeste 63 Sudeste 0 -- -- 68
2020-11-06 10:00:00 18.4 5 Sudeste 61 Sudeste 0 -- -- 68
2020-11-06 09:00:00 17.6 15 Sudeste 55 Sudeste 0 -- -- 69
2020-11-06 08:00:00 17.3 23 Sudeste 54 Sudeste 0 -- -- 70
2020-11-06 07:00:00 17 31 Sudeste 77 Sudeste 0 -- -- 70
2020-11-06 06:00:00 16.6 43 Sudeste 83 Sudeste 0 -- -- 72
2020-11-06 05:00:00 16.1 13 Sudeste 40 Sudeste 0 -- -- 74
2020-11-06 04:00:00 15.6 6 Sur 50 Sudeste 0 -- -- 76
2020-11-06 03:00:00 15.8 28 Sudeste 54 Sudeste 0 -- -- 74
2020-11-06 02:00:00 15.9 6 Este 53 Sudeste 0 -- -- 73
2020-11-06 01:00:00 15.9 13 Sudeste 50 Sudeste 0 -- -- 70
2020-11-06 00:00:00 15.8 4 Sur 19 Sur 0 -- -- 70
2020-11-05 23:00:00 16.1 5 Sur 18 Sudeste 0 -- -- 68
2020-11-05 22:00:00 16.1 2 Sur 23 Sudoeste 0 -- -- 68
2020-11-05 21:00:00 15.7 8 Oeste 26 Sudoeste 0 -- -- 68
2020-11-05 20:00:00 14 9 Sudeste 21 Sur 0 -- -- 74
2020-11-05 19:00:00 15.3 12 Sur 31 Sudeste 0 -- -- 68
2020-11-05 18:00:00 15.2 11 Sudeste 19 Este 0 -- -- 67
2020-11-05 17:00:00 16.9 3 Oeste 13 Norte 0 -- -- 66
2020-11-05 16:00:00 17.5 8 Sudeste 35 Sudeste 0 -- -- 60
2020-11-05 15:00:00 18.4 6 Sudeste 15 Este 0 -- -- 57
2020-11-05 14:00:00 17.4 6 Nordeste 19 Sudeste 0 -- -- 60
2020-11-05 13:00:00 15.4 8 Este 13 Este 0 -- -- 72
2020-11-05 12:00:00 13.2 4 Sur 10 Sudeste 0 -- -- 75
2020-11-05 11:00:00 10.6 5 Sudeste 12 Sudeste 0 -- -- 82
2020-11-05 10:00:00 8.8 5 Sudeste 9 Sur 0 -- -- 96
2020-11-05 09:00:00 6.3 3 Oeste 6 Sudeste 0 -- -- 100
2020-11-05 08:00:00 5.8 3 Norte 5 Este 0 -- -- 99
2020-11-05 07:00:00 6 3 Este 5 Sudeste 0 -- -- 99
2020-11-05 06:00:00 6.2 0 Calma 4 Sudoeste 0 -- -- 98
2020-11-05 05:00:00 6.2 3 Oeste 5 Oeste 0 -- -- 96
2020-11-05 04:00:00 6.7 4 Nordeste 6 Sudeste 0 -- -- 95
2020-11-05 03:00:00 7.4 0 Calma 3 Noroeste 0 -- -- 94
2020-11-05 02:00:00 7.6 0 Calma 5 Este 0 -- -- 92
2020-11-05 01:00:00 7.7 2 Este 6 Noroeste 0 -- -- 92
2020-11-05 00:00:00 7.8 0 Calma 4 Sudeste 0 -- -- 91
2020-11-04 23:00:00 8.4 2 Sudoeste 4 Sudoeste 0 -- -- 88
2020-11-04 22:00:00 8.7 0 Calma 5 Este 0 -- -- 81
2020-11-04 21:00:00 8.8 2 Norte 10 Nordeste 0 -- -- 80
2020-11-04 20:00:00 8.8 2 Nordeste 15 Nordeste 0 -- -- 82
2020-11-04 19:00:00 8.9 5 Norte 19 Nordeste 0 -- -- 81
2020-11-04 18:00:00 9.1 5 Nordeste 18 Nordeste 0 -- -- 81
2020-11-04 17:00:00 9.5 5 Norte 19 Este 0 -- -- 79
2020-11-04 16:00:00 10.1 6 Nordeste 20 Nordeste 0 -- -- 75
2020-11-04 15:00:00 10.5 5 Nordeste 18 Norte 0 -- -- 75
2020-11-04 14:00:00 10.6 7 Este 19 Este 0 -- -- 74
2020-11-04 13:00:00 10.2 6 Este 16 Sudeste 0 -- -- 81
2020-11-04 12:00:00 9.6 8 Sudeste 12 Este 0 -- -- 89
2020-11-04 11:00:00 9.3 5 Este 11 Sudeste 0 -- -- 93
2020-11-04 10:00:00 7.4 3 Sur 7 Este 0 -- -- 100
2020-11-04 09:00:00 6.5 2 Sur 4 Sudeste 0 -- -- 100
2020-11-04 08:00:00 6.5 0 Calma 6 Este 0 -- -- 100
2020-11-04 07:00:00 6.5 3 Este 5 Nordeste 0.2 -- -- 100
2020-11-04 06:00:00 6.5 3 Sudeste 4 Sudeste 0 -- -- 100
2020-11-04 05:00:00 6.3 3 Noroeste 7 Noroeste 0 -- -- 99
2020-11-04 04:00:00 6.7 2 Noroeste 9 Noroeste 0 -- -- 99
2020-11-04 03:00:00 7 5 Noroeste 7 Oeste 0.2 -- -- 99
2020-11-04 02:00:00 7.4 2 Sudeste 11 Este 0 -- -- 99
2020-11-04 01:00:00 7.2 4 Noroeste 8 Noroeste 0 -- -- 99
2020-11-04 00:00:00 8 0 Calma 4 Noroeste 0 -- -- 98
2020-11-03 23:00:00 8.2 2 Oeste 7 Noroeste 0 -- -- 98
2020-11-03 22:00:00 8.5 2 Nordeste 11 Norte 0.2 -- -- 98
2020-11-03 21:00:00 8.6 3 Sudoeste 8 Noroeste 0.4 -- -- 97
2020-11-03 20:00:00 9.2 2 Norte 9 Sur 0.2 -- -- 96
2020-11-03 19:00:00 9.6 2 Norte 20 Noroeste 0.6 -- -- 92
2020-11-03 18:00:00 10.2 3 Sudeste 28 Noroeste 0 -- -- 91
2020-11-03 17:00:00 10.8 3 Nordeste 20 Oeste 0 -- -- 90
2020-11-03 16:00:00 10.6 6 Norte 36 Noroeste 0 -- -- 89
2020-11-03 15:00:00 11.5 6 Noroeste 15 Norte 0.2 -- -- 90
2020-11-03 14:00:00 11.6 5 Este 10 Norte 1 -- -- 97
2020-11-03 13:00:00 11.8 9 Noroeste 18 Noroeste 0 -- -- 92
2020-11-03 12:00:00 11.9 3 Sudoeste 5 Oeste 0 -- -- 91
2020-11-03 11:00:00 11.1 0 Calma 5 Oeste 0 -- -- 97
2020-11-03 10:00:00 10.5 3 Sur 9 Sudeste 0 -- -- 100
2020-11-03 09:00:00 10.1 0 Calma 5 Sudeste 0.6 -- -- 99
2020-11-03 08:00:00 10.1 0 Calma 4 Este 0 -- -- 99
2020-11-03 07:00:00 10.1 5 Este 15 Nordeste 0 -- -- 98
2020-11-03 06:00:00 10.5 5 Nordeste 14 Este 1 -- -- 96
2020-11-03 05:00:00 10.8 2 Este 8 Este 1.6 -- -- 99
2020-11-03 04:00:00 10.9 3 Este 12 Este 0.4 -- -- 98
2020-11-03 03:00:00 11.5 6 Este 12 Este 0.2 -- -- 94
2020-11-03 02:00:00 11.7 5 Este 10 Este 0 -- -- 98
2020-11-03 01:00:00 11.9 5 Este 6 Este 0 -- -- 98
2020-11-03 00:00:00 12 5 Este 8 Este 0 -- -- 97
2020-11-02 23:00:00 12.1 5 Este 6 Este 0 -- -- 96
2020-11-02 22:00:00 12.2 2 Sudoeste 6 Oeste 0 -- -- 93
2020-11-02 21:00:00 12.6 3 Sudoeste 27 Noroeste 0 -- -- 93
2020-11-02 20:00:00 12.9 8 Norte 23 Noroeste 0.4 -- -- 90
2020-11-02 19:00:00 13.9 7 Nordeste 16 Este 0.8 -- -- 94
2020-11-02 18:00:00 16.2 6 Este 17 Norte 0 -- -- 87
2020-11-02 17:00:00 18.2 11 Noroeste 33 Norte 0 -- -- 79
2020-11-02 16:00:00 21.6 8 Oeste 15 Sur 0 -- -- 64
2020-11-02 15:00:00 22.5 8 Sur 21 Sudeste 0 -- -- 58
2020-11-02 14:00:00 23.3 6 Sudoeste 17 Oeste 0 -- -- 58
2020-11-02 13:00:00 21.2 7 Sudoeste 21 Sur 0 -- -- 63
2020-11-02 12:00:00 20.5 12 Oeste 25 Oeste 0 -- -- 63
2020-11-02 11:00:00 20 7 Sudoeste 16 Sur 0 -- -- 66
2020-11-02 10:00:00 19.1 4 Sudoeste 17 Este 0 -- -- 69
2020-11-02 09:00:00 18.4 13 Sudeste 24 Sudeste 0 -- -- 67
2020-11-02 08:00:00 18.1 9 Sur 25 Sur 0 -- -- 64
2020-11-02 07:00:00 18.6 10 Oeste 29 Sudoeste 0 -- -- 62
2020-11-02 06:00:00 18.9 6 Sudoeste 25 Oeste 0 -- -- 61
2020-11-02 05:00:00 19 9 Oeste 24 Oeste 0 -- -- 62
2020-11-02 04:00:00 19.1 9 Noroeste 20 Oeste 0 -- -- 67
2020-11-02 03:00:00 19.7 7 Oeste 18 Oeste 0 -- -- 63
2020-11-02 02:00:00 19.9 8 Oeste 23 Oeste 0 -- -- 61
2020-11-02 01:00:00 19.6 9 Oeste 25 Oeste 0 -- -- 64
2020-11-02 00:00:00 20.1 13 Oeste 32 Oeste 0 -- -- 63